Hauptseite
METAR-TAF:

METAR-TAF

Flughäfen :

Flughafen São Paulo-Congonhas

São Paulo, São Paulo, Brasilien

Breite: 23-37S, Länge: 046-39W, Höhe: 803 m

Beobachtung

Neuester Wetterbericht von vor 1 Stunde und 3 Minuten, um 00:00 UTC
Wind 3 kt aus Nordost
Temperatur 23°C
Luftfeuchtigkeit 50%
Luftdruck 1020 hPa
Sichtweite 10 km oder mehr
keine Wolken unter 1500 m und keine Kumulonimbus oder Gewitterwolken

METAR: SBSP 170000Z 05003KT CAVOK 23/12 Q1020

Zeit: 22:03 (01:03 UTC)

Prognose

Neuester Wetterbericht von vor 3 Stunden und 18 Minuten, um 21:45 UTC
Gültige Prognose vom 17 um 00 UTC bis 17 um 12 UTC
Wind 5 kt aus Nord/Nordost
Sichtweite: 8000 m
Leicht bewölkt in der Höhe von 1800 ft

TAF: SBSP 162145Z 1700/1712 03005KT 8000 FEW018 TX21/1700Z TN15/1709Z RMK PGM

Wetterbeobachtungen und Prognosen von mehr als 4000 Flughäfen (METAR und TAF Bericht).

Die verfügbaren Stationen werden durch gelbe und rote Markierungen auf der Karte dargestellt.

Führen Sie die Maus auf sie, um den Namen der Station zu sehen.

Darauf klicken, um die Beobachtung von Wetterbeobachtungen und Prognosen zu sehen.

Um die Karte zu ändern : klicken Sie auf den grünen Tasten mit einem schwarzen Kreuz Zum Vergrößern, auf den grünen Button mit einem Gedankenstrich zu verkleinern, oder auf die grünen Pfeile für benachbarte Karten.


METAR-TAF: